Flight Track Log - Related Links

Times and Time Zones

All times are in EDT time to prevent confusion due to time zone crossing. See the SWA607 flight status page for this flight to view local times or setup timezone preferences in your user account.

Time Position Orientation Groundspeed Altitude Reporting Facility
EDT Latitude Longitude Course Direction KTS MPH feet Rate Location/Type
Sat 08:50:38 PM 36.0760 -115.1550 270° West 174 200 2,500  Level FlightAware ADS-B
Sat 08:50:59 PM 36.0760 -115.1750 270° West 178 205 3,500 2,341 Climbing FlightAware ADS-B
Sat 08:51:19 PM 36.0760 -115.1990 270° West 212 244 4,100 2,045 Climbing FlightAware ADS-B
Sat 08:51:43 PM 36.0750 -115.2290 268° West 241 277 5,000 2,357 Climbing FlightAware ADS-B
Sat 08:51:47 PM 36.0730 -115.2350 248° West 245 282 5,200 2,727 Climbing FlightAware ADS-B
Sat 08:51:54 PM 36.0700 -115.2430 245° Southwest 250 288 5,500 2,800 Climbing FlightAware ADS-B
Sat 08:52:02 PM 36.0640 -115.2530 233° Southwest 256 295 5,900 2,824 Climbing FlightAware ADS-B
Sat 08:52:11 PM 36.0570 -115.2600 219° Southwest 264 304 6,300 2,769 Climbing FlightAware ADS-B
Sat 08:52:15 PM 36.0510 -115.2640 208° Southwest 268 308 6,500 2,100 Climbing FlightAware ADS-B
Sat 08:52:31 PM 36.0320 -115.2730 201° Southwest 280 322 7,000 882 Climbing FlightAware ADS-B
Sat 08:52:49 PM 36.0090 -115.2830 199° South 282 325 7,000 154 Level FlightAware ADS-B
Sat 08:53:10 PM 35.9840 -115.2950 201° Southwest 283 326 7,100 400 Climbing FlightAware ADS-B
Sat 08:53:19 PM 35.9730 -115.2970 188° South 286 329 7,200 1,412 Climbing FlightAware ADS-B
Sat 08:53:27 PM 35.9620 -115.2970 180° South 286 329 7,500 2,625 Climbing FlightAware ADS-B
Sat 08:53:35 PM 35.9510 -115.2940 168° South 288 331 7,900 2,842 Climbing FlightAware ADS-B
Sat 08:53:46 PM 35.9380 -115.2850 151° Southeast 294 338 8,400 3,000 Climbing FlightAware ADS-B
Sat 08:53:55 PM 35.9300 -115.2740 132° Southeast 296 341 8,900 3,000 Climbing FlightAware ADS-B
Sat 08:54:02 PM 35.9250 -115.2650 124° Southeast 299 344 9,200 2,182 Climbing FlightAware ADS-B
Sat 08:54:06 PM 35.9230 -115.2580 109° East 301 346 9,300 2,500 Climbing FlightAware ADS-B
Sat 08:54:14 PM 35.9200 -115.2450 106° East 302 348 9,700 3,231 Climbing FlightAware ADS-B
Sat 08:54:19 PM 35.9200 -115.2370 90° East 302 348 10,000 2,143 Climbing FlightAware ADS-B
Sat 08:54:56 PM 35.9210 -115.1680 89° East 347 399 11,200 2,385 Climbing FlightAware ADS-B
Sat 08:55:37 PM 35.9210 -115.0880 90° East 364 419 13,100 2,960 Climbing FlightAware ADS-B
Sat 08:56:11 PM 35.9220 -115.0150 89° East 375 432 14,900 3,171 Climbing FlightAware ADS-B
Sat 08:56:47 PM 35.9220 -114.9390 90° East 382 440 16,800 3,086 Climbing FlightAware ADS-B
Sat 08:57:21 PM 35.9230 -114.8630 89° East 389 448 18,500 2,829 Climbing FlightAware ADS-B
Sat 08:57:57 PM 35.9230 -114.7840 90° East 395 455 20,100 2,657 Climbing FlightAware ADS-B
Sat 08:58:31 PM 35.9230 -114.7050 90° East 404 465 21,600 2,522 Climbing FlightAware ADS-B
Sat 08:59:06 PM 35.9240 -114.6240 89° East 409 471 23,000 2,314 Climbing FlightAware ADS-B
Sat 08:59:41 PM 35.9240 -114.5420 90° East 415 478 24,300 2,229 Climbing FlightAware ADS-B
Sat 09:00:16 PM 35.9240 -114.4570 90° East 420 483 25,600 2,055 Climbing FlightAware ADS-B
Sat 09:00:54 PM 35.9240 -114.3670 90° East 426 490 26,800 1,971 Climbing FlightAware ADS-B
Sat 09:01:26 PM 35.9240 -114.2880 90° East 429 494 27,900 1,870 Climbing FlightAware ADS-B
Sat 09:02:11 PM 35.9240 -114.1760 90° East 436 502 29,200 1,575 Climbing FlightAware ADS-B
Sat 09:02:46 PM 35.9240 -114.0890 90° East 443 510 30,000 1,371 Climbing FlightAware ADS-B
Sat 09:03:21 PM 35.9240 -113.9990 90° East 450 518 30,800 1,565 Climbing FlightAware ADS-B
Sat 09:03:55 PM 35.9220 -113.9130 92° East 449 517 31,800 1,800 Climbing FlightAware ADS-B
Sat 09:04:31 PM 35.9070 -113.8230 102° East 447 514 32,900 1,833 Climbing FlightAware ADS-B
Sat 09:05:07 PM 35.8900 -113.7350 103° East 443 510 34,000 1,629 Climbing FlightAware ADS-B
Sat 09:05:41 PM 35.8690 -113.6540 108° East 443 510 34,800 1,412 Climbing FlightAware ADS-B
Sat 09:06:15 PM 35.8350 -113.5770 119° Southeast 445 512 35,600 1,164 Climbing FlightAware ADS-B
Sat 09:06:48 PM 35.8000 -113.5060 121° Southeast 447 514 36,100 943 Climbing FlightAware ADS-B
Sat 09:07:25 PM 35.7590 -113.4250 122° Southeast 452 520 36,700 730 Climbing FlightAware ADS-B
Sat 09:08:02 PM 35.7180 -113.3430 122° Southeast 458 527 37,000 257 Climbing FlightAware ADS-B
Sat 09:08:35 PM 35.6820 -113.2710 122° Southeast 458 527 37,000  Level FlightAware ADS-B
Sat 09:09:09 PM 35.6440 -113.1950 122° Southeast 458 527 37,000  Level FlightAware ADS-B
Sat 09:09:46 PM 35.6040 -113.1140 121° Southeast 457 526 37,000  Level FlightAware ADS-B
Sat 09:10:23 PM 35.5620 -113.0330 122° Southeast 458 527 37,000  Level FlightAware ADS-B
Sat 09:10:54 PM 35.5270 -112.9640 122° Southeast 459 528 37,000  Level FlightAware ADS-B
Sat 09:11:26 PM 35.4920 -112.8930 121° Southeast 461 531 37,000  Level FlightAware ADS-B
Sat 09:12:02 PM 35.4520 -112.8150 122° Southeast 462 532 37,000  Level FlightAware ADS-B
Sat 09:12:38 PM 35.4110 -112.7340 122° Southeast 462 532 37,000  Level FlightAware ADS-B
Sat 09:13:10 PM 35.3750 -112.6620 122° Southeast 462 532 37,000  Level FlightAware ADS-B
Sat 09:13:47 PM 35.3340 -112.5820 122° Southeast 461 531 37,000  Level FlightAware ADS-B
Sat 09:14:23 PM 35.2920 -112.5000 122° Southeast 460 529 37,000  Level FlightAware ADS-B
Sat 09:14:58 PM 35.2520 -112.4220 122° Southeast 463 533 37,000  Level FlightAware ADS-B
Sat 09:15:30 PM 35.2150 -112.3500 122° Southeast 470 541 37,000  Level FlightAware ADS-B
Sat 09:16:06 PM 35.1730 -112.2680 122° Southeast 471 542 37,000  Level FlightAware ADS-B
Sat 09:16:42 PM 35.1310 -112.1870 122° Southeast 472 543 37,000  Level FlightAware ADS-B
Sat 09:17:18 PM 35.0890 -112.1070 123° Southeast 473 544 37,000  Level FlightAware ADS-B
Sat 09:17:50 PM 35.0510 -112.0340 122° Southeast 474 545 37,000  Level FlightAware ADS-B
Sat 09:18:26 PM 35.0090 -111.9530 122° Southeast 474 545 37,000  Level FlightAware ADS-B
Sat 09:19:02 PM 34.9670 -111.8730 123° Southeast 476 548 37,000  Level FlightAware ADS-B
Sat 09:19:38 PM 34.9240 -111.7900 122° Southeast 476 548 37,000  Level FlightAware ADS-B
Sat 09:20:11 PM 34.8860 -111.7170 122° Southeast 477 549 37,000  Level FlightAware ADS-B
Sat 09:20:48 PM 34.8420 -111.6320 122° Southeast 478 550 37,000  Level FlightAware ADS-B
Sat 09:21:18 PM 34.8060 -111.5630 122° Southeast 480 552 37,000  Level FlightAware ADS-B
Sat 09:21:56 PM 34.7600 -111.4770 123° Southeast 482 555 37,000  Level FlightAware ADS-B
Sat 09:22:32 PM 34.7170 -111.3950 123° Southeast 483 556 37,000  Level FlightAware ADS-B
Sat 09:23:08 PM 34.6740 -111.3130 123° Southeast 484 557 37,000  Level FlightAware ADS-B
Sat 09:23:40 PM 34.6350 -111.2400 123° Southeast 485 558 37,000  Level FlightAware ADS-B
Sat 09:24:18 PM 34.5890 -111.1530 123° Southeast 486 559 37,000  Level FlightAware ADS-B
Sat 09:24:52 PM 34.5480 -111.0750 123° Southeast 486 559 37,000  Level FlightAware ADS-B
Sat 09:25:26 PM 34.5060 -110.9970 123° Southeast 486 559 37,000  Level FlightAware ADS-B
Sat 09:26:02 PM 34.4620 -110.9140 123° Southeast 486 559 37,000  Level FlightAware ADS-B
Sat 09:26:36 PM 34.4200 -110.8370 123° Southeast 485 558 37,000  Level FlightAware ADS-B
Sat 09:27:14 PM 34.3740 -110.7500 123° Southeast 486 559 37,000  Level FlightAware ADS-B
Sat 09:27:46 PM 34.3340 -110.6770 124° Southeast 485 558 37,000  Level FlightAware ADS-B
Sat 09:28:22 PM 34.2910 -110.5960 123° Southeast 485 558 37,000  Level FlightAware ADS-B
Sat 09:28:56 PM 34.2490 -110.5190 123° Southeast 484 557 37,000  Level FlightAware ADS-B
Sat 09:29:32 PM 34.2050 -110.4370 123° Southeast 484 557 37,000  Level FlightAware ADS-B
Sat 09:30:08 PM 34.1620 -110.3570 123° Southeast 485 558 37,000  Level FlightAware ADS-B
Sat 09:30:45 PM 34.1300 -110.2650 113° Southeast 486 559 37,000  Level FlightAware ADS-B
Sat 09:31:16 PM 34.1110 -110.1840 106° East 486 559 37,000  Level FlightAware ADS-B
Sat 09:31:52 PM 34.0890 -110.0900 106° East 487 560 37,000  Level FlightAware ADS-B
Sat 09:32:29 PM 34.0690 -110.0020 105° East 488 562 37,000  Level FlightAware ADS-B
Sat 09:33:09 PM 34.0490 -109.9230 107° East 490 564 37,000  Level FlightAware ADS-B
Sat 09:34:02 PM 34.0190 -109.7960 106° East 492 566 37,000  Level FlightAware ADS-B
Sat 09:34:38 PM 34.0000 -109.7150 106° East 492 566 37,000  Level FlightAware ADS-B
Sat 09:35:14 PM 33.9810 -109.6340 106° East 492 566 37,000  Level FlightAware ADS-B
Sat 09:35:50 PM 33.9620 -109.5540 106° East 492 566 37,000  Level FlightAware ADS-B
Sat 09:36:26 PM 33.9420 -109.4730 107° East 492 566 37,000  Level FlightAware ADS-B
Sat 09:37:02 PM 33.9230 -109.3920 106° East 492 566 37,000  Level FlightAware ADS-B
Sat 09:37:38 PM 33.9040 -109.3120 106° East 492 566 37,000  Level FlightAware ADS-B
Sat 09:38:14 PM 33.8850 -109.2310 106° East 492 566 37,000  Level FlightAware ADS-B
Sat 09:38:50 PM 33.8650 -109.1500 107° East 492 566 37,000  Level FlightAware ADS-B
Sat 09:39:26 PM 33.8460 -109.0700 106° East 492 566 37,000  Level FlightAware ADS-B
Sat 09:40:02 PM 33.8270 -108.9890 106° East 492 566 37,000  Level FlightAware ADS-B
Sat 09:40:38 PM 33.8080 -108.9090 106° East 492 566 37,000  Level FlightAware ADS-B
Sat 09:41:14 PM 33.7890 -108.8280 106° East 492 566 37,000  Level FlightAware ADS-B
Sat 09:41:50 PM 33.7690 -108.7470 107° East 492 566 37,000  Level FlightAware ADS-B
Sat 09:42:26 PM 33.7500 -108.6670 106° East 492 566 37,000  Level FlightAware ADS-B
Sat 09:43:03 PM 33.7300 -108.5840 106° East 492 566 37,000  Level FlightAware ADS-B
Sat 09:44:02 PM 33.6258 -108.2044 106° East 499 574 37,000 -50 Level Albuquerque Center
Sat 09:45:03 PM 33.5814 -108.0336 107° East 496 571 36,900 -492 Descending Albuquerque Center
Sat 09:46:04 PM 33.5411 -107.8744 107° East 498 573 36,000 -942 Descending Albuquerque Center
Sat 09:47:04 PM 33.5006 -107.7183 107° East 494 568 35,000 -496 Descending Albuquerque Center
Sat 09:48:05 PM 33.4611 -107.5631 107° East 489 563 35,000  Level Albuquerque Center
Sat 09:49:06 PM 33.4197 -107.4078 108° East 489 563 35,000 -49 Level Albuquerque Center
Sat 09:50:07 PM 33.3783 -107.2497 107° East 493 567 34,900  Descending Albuquerque Center
Sat 09:51:08 PM 33.3369 -107.0942 108° East 492 566 35,000 49 Climbing Albuquerque Center
Sat 09:52:09 PM 33.2867 -106.9072 108° East 491 565 35,000 -49 Level Albuquerque Center
Sat 09:53:10 PM 33.2444 -106.7492 108° East 494 568 34,900  Descending Albuquerque Center
Sat 09:54:11 PM 33.2022 -106.5936 108° East 492 566 35,000 50 Climbing Albuquerque Center
Sat 09:55:11 PM 33.1611 -106.4394 108° East 489 563 35,000  Level Albuquerque Center
Sat 09:56:12 PM 33.1186 -106.2856 108° East 488 562 35,000  Level Albuquerque Center
Sat 09:57:13 PM 33.0761 -106.1286 108° East 491 565 35,000  Level Albuquerque Center
Sat 09:58:14 PM 33.0325 -105.9731 108° East 494 568 35,000  Level Albuquerque Center
Sat 09:59:15 PM 32.9903 -105.8147 108° East 498 573 35,000  Level Albuquerque Center
Sat 10:00:16 PM 32.9442 -105.6489 108° East 499 574 35,000  Level Albuquerque Center
Sat 10:01:17 PM 32.8994 -105.4931 109° East 498 573 35,000  Level Albuquerque Center
Sat 10:02:18 PM 32.8556 -105.3356 108° East 500 575 35,000  Level Albuquerque Center
Sat 10:03:18 PM 32.8058 -105.1644 109° East 506 582 35,000  Level Albuquerque Center
Sat 10:04:19 PM 32.7617 -105.0083 109° East 503 579 35,000  Level Albuquerque Center
Sat 10:09:53 PM 32.5140 -104.1470 109° East 496 571 35,000  Level FlightAware ADS-B
Sat 10:10:23 PM 32.4910 -104.0690 109° East 497 572 35,000  Level FlightAware ADS-B
Sat 10:11:03 PM 32.4630 -103.9720 109° East 496 571 35,000  Level FlightAware ADS-B
Sat 10:12:00 PM 32.4220 -103.8340 109° East 496 571 35,000  Level FlightAware ADS-B
Sat 10:12:33 PM 32.3930 -103.7360 109° East 499 574 35,000  Level FlightAware ADS-B
Sat 10:13:20 PM 32.3620 -103.6300 109° East 499 574 35,000  Level FlightAware ADS-B
Sat 10:13:56 PM 32.3390 -103.5510 109° East 499 574 35,000  Level FlightAware ADS-B
Sat 10:14:30 PM 32.3030 -103.4350 110° East 503 579 35,000  Level FlightAware ADS-B
Sat 10:15:06 PM 32.2750 -103.3420 110° East 505 581 35,000  Level FlightAware ADS-B
Sat 10:15:36 PM 32.2520 -103.2680 110° East 505 581 35,000  Level FlightAware ADS-B
Sat 10:16:14 PM 32.2210 -103.1640 109° East 505 581 35,000  Level FlightAware ADS-B
Sat 10:16:51 PM 32.1920 -103.0700 110° East 505 581 35,000  Level FlightAware ADS-B
Sat 10:17:26 PM 32.1650 -102.9810 110° East 502 578 35,000  Level FlightAware ADS-B
Sat 10:17:59 PM 32.1390 -102.8950 110° East 502 578 35,000  Level FlightAware ADS-B
Sat 10:18:35 PM 32.1100 -102.8010 110° East 502 578 35,000  Level FlightAware ADS-B
Sat 10:19:09 PM 32.0840 -102.7170 110° East 502 578 35,000  Level FlightAware ADS-B
Sat 10:19:47 PM 32.0530 -102.6170 110° East 503 579 35,000  Level FlightAware ADS-B
Sat 10:20:17 PM 32.0290 -102.5390 110° East 502 578 35,000  Level FlightAware ADS-B
Sat 10:20:53 PM 32.0010 -102.4470 110° East 502 578 35,000  Level FlightAware ADS-B
Sat 10:21:26 PM 31.9750 -102.3640 110° East 501 577 35,000  Level FlightAware ADS-B
Sat 10:22:13 PM 31.9410 -102.2560 110° East 501 577 35,000  Level FlightAware ADS-B
Sat 10:22:46 PM 31.9100 -102.1570 110° East 500 575 35,000  Level FlightAware ADS-B
Sat 10:23:24 PM 31.8800 -102.0630 111° Southeast 501 577 35,000  Level FlightAware ADS-B
Sat 10:23:56 PM 31.8540 -101.9790 110° East 501 577 35,000  Level FlightAware ADS-B
Sat 10:24:32 PM 31.8240 -101.8860 111° Southeast 502 578 35,000  Level FlightAware ADS-B
Sat 10:25:05 PM 31.7990 -101.8050 110° East 503 579 35,000  Level FlightAware ADS-B
Sat 10:25:40 PM 31.7710 -101.7150 110° East 504 580 35,000  Level FlightAware ADS-B
Sat 10:26:34 PM 31.7320 -101.5910 110° East 504 580 35,000  Level FlightAware ADS-B
Sat 10:27:12 PM 31.6950 -101.4780 111° Southeast 505 581 35,000  Level FlightAware ADS-B
Sat 10:27:48 PM 31.6650 -101.3860 111° Southeast 506 582 35,000  Level FlightAware ADS-B
Sat 10:28:24 PM 31.6350 -101.2940 111° Southeast 508 585 35,000  Level FlightAware ADS-B
Sat 10:28:57 PM 31.6080 -101.2100 111° Southeast 508 585 35,000  Level FlightAware ADS-B
Sat 10:29:32 PM 31.5780 -101.1170 111° Southeast 510 587 35,000  Level FlightAware ADS-B
Sat 10:30:09 PM 31.5480 -101.0250 111° Southeast 510 587 35,000  Level FlightAware ADS-B
Sat 10:30:45 PM 31.5170 -100.9280 111° Southeast 511 588 35,000  Level FlightAware ADS-B
Sat 10:31:17 PM 31.4900 -100.8460 111° Southeast 512 589 35,000  Level FlightAware ADS-B
Sat 10:31:53 PM 31.4600 -100.7530 111° Southeast 512 589 35,000  Level FlightAware ADS-B
Sat 10:32:28 PM 31.4310 -100.6610 110° East 518 596 35,000  Level FlightAware ADS-B
Sat 10:33:04 PM 31.4120 -100.5630 103° East 522 601 35,000  Level FlightAware ADS-B
Sat 10:33:36 PM 31.3950 -100.4750 103° East 522 601 35,000  Level FlightAware ADS-B
Sat 10:34:11 PM 31.3760 -100.3770 103° East 521 600 35,000  Level FlightAware ADS-B
Sat 10:34:48 PM 31.3560 -100.2770 103° East 521 600 35,000  Level FlightAware ADS-B
Sat 10:35:23 PM 31.3370 -100.1800 103° East 520 598 35,000  Level FlightAware ADS-B
Sat 10:35:56 PM 31.3190 -100.0910 103° East 521 600 35,000  Level FlightAware ADS-B
Sat 10:36:33 PM 31.2990 -99.9880 103° East 521 600 35,000  Level FlightAware ADS-B
Sat 10:37:10 PM 31.2790 -99.8890 103° East 522 601 35,000  Level FlightAware ADS-B
Sat 10:37:42 PM 31.2610 -99.8010 103° East 522 601 35,000  Level FlightAware ADS-B
Sat 10:38:18 PM 31.2400 -99.7000 104° East 523 602 35,000  Level FlightAware ADS-B
Sat 10:38:54 PM 31.2200 -99.6020 103° East 523 602 35,000  Level FlightAware ADS-B
Sat 10:39:26 PM 31.2030 -99.5140 103° East 525 604 35,000  Level FlightAware ADS-B
Sat 10:40:02 PM 31.1820 -99.4150 104° East 525 604 35,000  Level FlightAware ADS-B
Sat 10:40:38 PM 31.1620 -99.3160 103° East 526 605 35,000  Level FlightAware ADS-B
Sat 10:41:09 PM 31.1440 -99.2290 104° East 527 606 35,000  Level FlightAware ADS-B
Sat 10:41:48 PM 31.1220 -99.1240 104° East 527 606 35,000  Level FlightAware ADS-B
Sat 10:42:24 PM 31.1010 -99.0220 103° East 528 608 35,000  Level FlightAware ADS-B
Sat 10:42:59 PM 31.0810 -98.9260 104° East 528 608 35,000  Level FlightAware ADS-B
Sat 10:43:31 PM 31.0620 -98.8370 104° East 527 606 35,000  Level FlightAware ADS-B
Sat 10:44:08 PM 31.0410 -98.7380 104° East 525 604 35,000  Level FlightAware ADS-B
Sat 10:44:40 PM 31.0230 -98.6510 104° East 524 603 35,000  Level FlightAware ADS-B
Sat 10:45:18 PM 31.0000 -98.5450 104° East 524 603 35,000  Level FlightAware ADS-B
Sat 10:45:53 PM 30.9800 -98.4480 103° East 524 603 35,000  Level FlightAware ADS-B
Sat 10:46:30 PM 30.9580 -98.3490 105° East 524 603 35,000  Level FlightAware ADS-B
Sat 10:47:02 PM 30.9400 -98.2610 103° East 523 602 35,000  Level FlightAware ADS-B
Sat 10:47:38 PM 30.9190 -98.1640 104° East 523 602 35,000  Level FlightAware ADS-B
Sat 10:48:14 PM 30.8970 -98.0660 105° East 524 603 35,000  Level FlightAware ADS-B
Sat 10:48:46 PM 30.8780 -97.9760 104° East 526 605 35,000  Level FlightAware ADS-B
Sat 10:49:22 PM 30.8560 -97.8780 105° East 527 606 35,000  Level FlightAware ADS-B
Sat 10:49:58 PM 30.8350 -97.7800 104° East 529 609 35,000  Level FlightAware ADS-B
Sat 10:50:36 PM 30.8070 -97.6790 108° East 520 598 35,000 -171 Level FlightAware ADS-B
Sat 10:51:08 PM 30.7740 -97.5960 115° Southeast 517 595 34,800 -1,588 Descending FlightAware ADS-B
Sat 10:51:44 PM 30.7380 -97.5060 115° Southeast 518 596 33,200 -2,750 Descending FlightAware ADS-B
Sat 10:52:20 PM 30.7010 -97.4160 116° Southeast 516 594 31,500 -2,647 Descending FlightAware ADS-B
Sat 10:52:52 PM 30.6690 -97.3370 115° Southeast 508 585 30,200 -2,418 Descending FlightAware ADS-B
Sat 10:53:27 PM 30.6340 -97.2490 115° Southeast 500 575 28,800 -2,333 Descending FlightAware ADS-B
Sat 10:54:04 PM 30.5980 -97.1610 115° Southeast 492 566 27,400 -2,348 Descending FlightAware ADS-B
Sat 10:54:36 PM 30.5670 -97.0850 115° Southeast 487 560 26,100 -2,314 Descending FlightAware ADS-B
Sat 10:55:14 PM 30.5310 -96.9970 115° Southeast 476 548 24,700 -2,189 Descending FlightAware ADS-B
Sat 10:55:50 PM 30.4980 -96.9160 115° Southeast 463 533 23,400 -2,167 Descending FlightAware ADS-B
Sat 10:56:26 PM 30.4660 -96.8360 115° Southeast 450 518 22,100 -2,206 Descending FlightAware ADS-B
Sat 10:56:58 PM 30.4370 -96.7670 116° Southeast 439 505 20,900 -2,174 Descending FlightAware ADS-B
Sat 10:57:35 PM 30.4050 -96.6880 115° Southeast 425 489 19,600 -2,000 Descending FlightAware ADS-B
Sat 10:58:10 PM 30.3760 -96.6180 116° Southeast 414 476 18,500 -1,970 Descending FlightAware ADS-B
Sat 10:58:42 PM 30.3510 -96.5570 115° Southeast 407 468 17,400 -2,206 Descending FlightAware ADS-B
Sat 10:59:18 PM 30.3210 -96.4850 116° Southeast 401 461 16,000 -2,250 Descending FlightAware ADS-B
Sat 10:59:54 PM 30.2930 -96.4170 115° Southeast 394 453 14,700 -2,143 Descending FlightAware ADS-B
Sat 11:00:28 PM 30.2670 -96.3520 115° Southeast 387 445 13,500 -1,446 Descending FlightAware ADS-B
Sat 11:01:17 PM 30.2330 -96.2690 115° Southeast 384 442 12,700 -565 Descending FlightAware ADS-B
Sat 11:01:53 PM 30.2100 -96.2120 115° Southeast 384 442 12,700 -1,862 Level FlightAware ADS-B
Sat 11:02:15 PM 30.1710 -96.1720 138° Southeast 351 404 10,900 -1,964 Descending FlightAware ADS-B
Sat 11:02:48 PM 30.1320 -96.1320 138° Southeast 348 400 10,900  Level FlightAware ADS-B
Sat 11:03:23 PM 30.0890 -96.0900 140° Southeast 349 402 10,900  Level FlightAware ADS-B
Sat 11:03:59 PM 30.0440 -96.0440 138° Southeast 351 404 10,900  Level FlightAware ADS-B
Sat 11:04:36 PM 30.0050 -95.9920 131° Southeast 353 406 10,900  Level FlightAware ADS-B
Sat 11:05:09 PM 29.9690 -95.9440 131° Southeast 353 406 10,900 -88 Level FlightAware ADS-B
Sat 11:05:44 PM 29.9330 -95.8950 130° Southeast 333 383 10,800 -750 Descending FlightAware ADS-B
Sat 11:06:21 PM 29.8970 -95.8460 130° Southeast 321 369 10,000 -1,263 Descending FlightAware ADS-B
Sat 11:06:41 PM 29.8780 -95.8200 130° Southeast 314 361 9,600 -1,200 Descending FlightAware ADS-B
Sat 11:06:56 PM 29.8640 -95.8020 132° Southeast 309 356 9,300 -1,231 Descending FlightAware ADS-B
Sat 11:07:20 PM 29.8420 -95.7720 130° Southeast 304 350 8,800 -1,404 Descending FlightAware ADS-B
Sat 11:07:43 PM 29.8210 -95.7430 130° Southeast 302 348 8,200 -1,459 Descending FlightAware ADS-B
Sat 11:07:57 PM 29.8090 -95.7260 129° Southeast 301 346 7,900 -1,455 Descending FlightAware ADS-B
Sat 11:08:16 PM 29.7910 -95.7020 131° Southeast 300 345 7,400 -1,814 Descending FlightAware ADS-B
Sat 11:08:40 PM 29.7690 -95.6730 131° Southeast 300 345 6,600 -1,946 Descending FlightAware ADS-B
Sat 11:08:53 PM 29.7580 -95.6580 130° Southeast 297 342 6,200 -1,765 Descending FlightAware ADS-B
Sat 11:09:14 PM 29.7380 -95.6320 132° Southeast 291 335 5,600 -1,692 Descending FlightAware ADS-B
Sat 11:09:32 PM 29.7230 -95.6110 129° Southeast 284 327 5,100 -1,773 Descending FlightAware ADS-B
Sat 11:09:58 PM 29.7020 -95.5830 131° Southeast 281 323 4,300 -1,784 Descending FlightAware ADS-B
Sat 11:10:09 PM 29.6920 -95.5700 132° Southeast 280 322 4,000 -1,688 Descending FlightAware ADS-B
Sat 11:10:30 PM 29.6750 -95.5470 130° Southeast 275 316 3,400 -1,622 Descending FlightAware ADS-B
Sat 11:10:46 PM 29.6620 -95.5290 130° Southeast 268 308 3,000 -1,455 Descending FlightAware ADS-B
Sat 11:11:03 PM 29.6470 -95.5110 134° Southeast 259 298 2,600 -1,500 Descending FlightAware ADS-B
Sat 11:11:26 PM 29.6290 -95.4870 131° Southeast 252 290 2,000 -1,067 Descending FlightAware ADS-B
Sat 11:11:48 PM 29.6140 -95.4650 128° Southeast 231 266 1,800 -150 Descending FlightAware ADS-B
Sat 11:12:06 PM 29.6020 -95.4500 133° Southeast 212 244 1,900 140 Climbing FlightAware ADS-B
Sat 11:12:31 PM 29.5870 -95.4300 131° Southeast 176 203 1,900  Level FlightAware ADS-B
Sat 11:12:51 PM 29.5770 -95.4170 131° Southeast 151 174 1,900  Level FlightAware ADS-B
Sat 11:13:11 PM 29.5690 -95.4060 130° Southeast 145 167 1,900  Level FlightAware ADS-B
Sat 11:13:19 PM 29.5660 -95.4000 120° Southeast 143 165 1,900  Level FlightAware ADS-B
Sat 11:13:28 PM 29.5630 -95.3940 120° Southeast 139 160 1,900  Level FlightAware ADS-B
Sat 11:13:34 PM 29.5620 -95.3890 103° East 137 158 1,900  Level FlightAware ADS-B
Sat 11:13:39 PM 29.5610 -95.3860 111° Southeast 135 155 1,900  Level FlightAware ADS-B
Sat 11:14:03 PM 29.5650 -95.3700 74° East 129 148 1,900 -261 Level FlightAware ADS-B
Sat 11:14:25 PM 29.5730 -95.3580 53° Northeast 131 151 1,700 -585 Descending FlightAware ADS-B
Sat 11:14:44 PM 29.5810 -95.3490 44° Northeast 128 147 1,500 -750 Descending FlightAware ADS-B
Sat 11:15:05 PM 29.5900 -95.3400 41° Northeast 128 147 1,200 -714 Descending FlightAware ADS-B
Sat 11:15:26 PM 29.5990 -95.3300 44° Northeast 128 147 1,000 -585 Descending FlightAware ADS-B
Sat 11:15:46 PM 29.6080 -95.3200 44° Northeast 127 146 800 -750 Descending FlightAware ADS-B
Sat 11:16:06 PM 29.6160 -95.3110 44° Northeast 126 145 500 -714 Descending FlightAware ADS-B
Sat 11:16:28 PM 29.6260 -95.3000 44° Northeast 128 147 300 -545 Descending FlightAware ADS-B
Sat 11:16:50 PM 29.6350 -95.2900 44° Northeast 130 150 100 -545 Descending FlightAware ADS-B
Sat 11:17:24 PM 29.6480 -95.2760 43° Northeast 132 152 -176 Descending FlightAware ADS-B

Login

Don't have an account? Register now (free) for customized features, flight alerts, and more!